createdAt,value
2023-02-25T00:01:57.673Z,43.31
2023-02-25T00:04:31.514Z,43.14
2023-02-25T00:06:59.786Z,42.92
2023-02-25T00:09:28.770Z,42.92
2023-02-25T00:11:56.977Z,43.26
2023-02-25T00:14:24.430Z,42.94
2023-02-25T00:16:56.148Z,42.77
2023-02-25T00:19:26.019Z,42.80
2023-02-25T00:21:54.043Z,43.07
2023-02-25T00:24:21.647Z,42.46
2023-02-25T00:26:50.376Z,42.52
2023-02-25T00:29:18.544Z,42.80
2023-02-25T00:31:47.080Z,42.64
2023-02-25T00:34:15.859Z,42.72
2023-02-25T00:36:46.085Z,42.66
2023-02-25T00:39:13.924Z,42.48
2023-02-25T00:41:41.974Z,42.49
2023-02-25T00:44:09.602Z,42.62
2023-02-25T00:46:38.983Z,42.43
2023-02-25T00:49:06.562Z,42.76
2023-02-25T00:51:34.552Z,42.68
2023-02-25T00:54:02.126Z,42.68
2023-02-25T00:56:30.098Z,42.73
2023-02-25T00:59:00.285Z,42.74
2023-02-25T01:01:33.492Z,42.64
2023-02-25T01:04:01.884Z,42.78
2023-02-25T01:06:32.561Z,43.09
2023-02-25T01:09:01.335Z,42.92
2023-02-25T01:11:32.805Z,42.56
2023-02-25T01:14:08.111Z,43.07
2023-02-25T01:16:38.508Z,42.40
2023-02-25T01:19:12.879Z,42.58
2023-02-25T01:21:45.669Z,42.54
2023-02-25T01:24:21.987Z,42.63
2023-02-25T01:26:53.603Z,42.21
2023-02-25T01:29:42.162Z,42.34
2023-02-25T01:32:14.180Z,42.64
2023-02-25T01:34:42.346Z,42.24
2023-02-25T01:37:10.436Z,42.55
2023-02-25T01:39:41.678Z,42.24
2023-02-25T01:42:17.090Z,42.32
2023-02-25T01:45:18.720Z,42.04
2023-02-25T01:47:50.713Z,42.09
2023-02-25T01:50:22.508Z,42.46
2023-02-25T01:52:53.433Z,42.38
2023-02-25T01:55:21.243Z,41.91
2023-02-25T01:57:50.566Z,41.82
2023-02-25T02:00:18.963Z,41.83
2023-02-25T02:02:49.504Z,41.66
2023-02-25T02:05:17.577Z,41.79
2023-02-25T02:07:45.426Z,41.86
2023-02-25T02:10:13.000Z,41.70
2023-02-25T02:12:44.647Z,41.67
2023-02-25T02:15:15.842Z,41.46
2023-02-25T02:18:03.095Z,41.78
2023-02-25T02:21:18.929Z,41.63
2023-02-25T02:24:11.371Z,41.66
2023-02-25T02:26:52.156Z,41.67
2023-02-25T02:29:50.811Z,41.74
2023-02-25T02:32:24.620Z,41.44
2023-02-25T02:34:58.421Z,41.42
2023-02-25T02:38:12.331Z,41.55
2023-02-25T02:41:25.217Z,41.40
2023-02-25T02:44:12.921Z,41.60
2023-02-25T02:47:09.494Z,42.02
2023-02-25T02:49:54.035Z,41.62
2023-02-25T02:52:29.254Z,41.79
2023-02-25T02:55:22.294Z,41.71
2023-02-25T02:58:00.714Z,41.83
2023-02-25T03:00:36.712Z,41.51
2023-02-25T03:03:22.351Z,42.17
2023-02-25T03:05:53.369Z,41.83
2023-02-25T03:08:29.460Z,41.69
2023-02-25T03:10:57.798Z,41.69
2023-02-25T03:13:26.545Z,41.65
2023-02-25T03:15:55.722Z,41.40
2023-02-25T03:18:29.935Z,41.56
2023-02-25T03:21:00.705Z,41.82
2023-02-25T03:23:34.310Z,41.86
2023-02-25T03:26:31.405Z,41.79
2023-02-25T03:29:04.508Z,41.60
2023-02-25T03:31:58.790Z,41.55
2023-02-25T03:34:39.106Z,41.60
2023-02-25T03:37:22.733Z,42.08
2023-02-25T03:39:56.852Z,42.85
2023-02-25T03:42:32.424Z,43.14
2023-02-25T03:45:05.579Z,43.96
2023-02-25T03:47:37.397Z,44.82
2023-02-25T03:50:23.849Z,44.96
2023-02-25T03:52:56.071Z,46.00
2023-02-25T03:55:44.224Z,46.05
2023-02-25T03:58:12.138Z,46.21
2023-02-25T04:00:43.060Z,46.00
2023-02-25T04:03:10.713Z,47.05
2023-02-25T04:05:39.368Z,47.55
2023-02-25T04:08:16.038Z,48.49
2023-02-25T04:10:49.865Z,48.73
2023-02-25T04:13:20.990Z,49.94
2023-02-25T04:15:50.817Z,50.20
2023-02-25T04:18:18.439Z,50.50
2023-02-25T04:20:46.255Z,51.15
2023-02-25T04:23:17.037Z,51.72
2023-02-25T04:25:45.022Z,51.08
2023-02-25T04:28:12.551Z,52.22
2023-02-25T04:30:40.542Z,52.81
2023-02-25T04:33:09.662Z,53.89
2023-02-25T04:35:37.872Z,54.04
2023-02-25T04:38:07.388Z,54.74
2023-02-25T04:40:37.739Z,55.42
2023-02-25T04:43:05.287Z,55.82
2023-02-25T04:45:33.113Z,56.33
2023-02-25T04:48:00.764Z,56.97
2023-02-25T04:50:28.807Z,57.78
2023-02-25T04:52:56.370Z,58.90
2023-02-25T04:55:24.327Z,58.96
2023-02-25T04:57:51.856Z,60.37
2023-02-25T05:00:24.375Z,60.63
2023-02-25T05:02:52.293Z,62.14
2023-02-25T05:05:20.300Z,62.09
2023-02-25T05:07:48.222Z,62.41
2023-02-25T05:10:16.437Z,62.27
2023-02-25T05:12:44.155Z,63.10
2023-02-25T05:15:12.817Z,63.41
2023-02-25T05:17:40.401Z,63.92
2023-02-25T05:20:12.237Z,65.25
2023-02-25T05:22:41.584Z,66.03
2023-02-25T05:25:10.479Z,66.10
2023-02-25T05:27:38.121Z,66.22
2023-02-25T05:30:06.946Z,66.76
2023-02-25T05:32:34.764Z,67.60
2023-02-25T05:35:02.850Z,67.75
2023-02-25T05:37:32.511Z,67.81
2023-02-25T05:40:01.393Z,67.49
2023-02-25T05:42:29.545Z,66.53
2023-02-25T05:44:57.392Z,66.12
2023-02-25T05:47:24.967Z,66.79
2023-02-25T05:49:52.947Z,66.71
2023-02-25T05:52:20.641Z,68.74
2023-02-25T05:54:48.531Z,68.00
2023-02-25T05:57:16.384Z,65.20
2023-02-25T05:59:44.332Z,64.75
2023-02-25T06:02:11.933Z,63.40
2023-02-25T06:04:39.933Z,62.34
2023-02-25T06:07:08.151Z,61.06
2023-02-25T06:09:37.520Z,60.31
2023-02-25T06:12:05.605Z,60.65
2023-02-25T06:14:33.529Z,61.19
2023-02-25T06:17:02.273Z,61.19
2023-02-25T06:19:30.543Z,61.37
2023-02-25T06:21:58.198Z,61.75
2023-02-25T06:24:26.064Z,62.12
2023-02-25T06:26:53.542Z,62.78
2023-02-25T06:29:21.354Z,63.07
2023-02-25T06:31:48.950Z,63.69
2023-02-25T06:34:16.934Z,64.24
2023-02-25T06:36:44.676Z,64.83
2023-02-25T06:39:13.443Z,65.26
2023-02-25T06:41:41.169Z,65.79
2023-02-25T06:44:09.317Z,66.07
2023-02-25T06:46:37.006Z,65.92
2023-02-25T06:49:04.890Z,65.70
2023-02-25T06:51:32.758Z,65.69
2023-02-25T06:54:03.527Z,65.89
2023-02-25T06:56:31.400Z,65.69
2023-02-25T06:58:59.577Z,65.71
2023-02-25T07:01:27.592Z,66.34
2023-02-25T07:03:55.593Z,66.71
2023-02-25T07:06:23.384Z,66.58
2023-02-25T07:08:51.402Z,66.88
2023-02-25T07:11:18.815Z,67.83
2023-02-25T07:13:50.388Z,67.89
2023-02-25T07:16:18.597Z,67.77
2023-02-25T07:18:47.181Z,66.98
2023-02-25T07:21:16.124Z,66.43
2023-02-25T07:23:44.453Z,65.76
2023-02-25T07:26:13.824Z,66.36
2023-02-25T07:28:42.083Z,66.07
2023-02-25T07:31:19.423Z,66.60
2023-02-25T07:33:48.116Z,66.61
2023-02-25T07:36:17.162Z,66.61
2023-02-25T07:38:45.072Z,67.43
2023-02-25T07:41:15.913Z,67.31
2023-02-25T07:43:44.346Z,67.41
2023-02-25T07:46:13.468Z,67.06
2023-02-25T07:48:41.549Z,67.40
2023-02-25T07:51:18.620Z,67.50
2023-02-25T07:53:48.934Z,67.47
2023-02-25T07:56:18.254Z,66.97
2023-02-25T07:58:46.605Z,66.94
2023-02-25T08:01:31.782Z,67.06
2023-02-25T08:04:06.676Z,67.26
2023-02-25T08:06:41.087Z,66.68
2023-02-25T08:09:14.086Z,66.72
2023-02-25T08:11:41.891Z,66.35
2023-02-25T08:14:09.877Z,66.26
2023-02-25T08:16:37.869Z,65.66
2023-02-25T08:19:06.808Z,65.61
2023-02-25T08:21:34.494Z,65.96
2023-02-25T08:24:02.343Z,66.73
2023-02-25T08:26:29.856Z,66.45
2023-02-25T08:28:58.354Z,66.24
2023-02-25T08:31:26.387Z,66.02
2023-02-25T08:33:55.061Z,66.08
2023-02-25T08:36:29.381Z,66.16
2023-02-25T08:39:00.496Z,66.61
2023-02-25T08:41:29.087Z,66.42
2023-02-25T08:44:00.544Z,67.55
2023-02-25T08:46:31.588Z,68.32
2023-02-25T08:49:00.672Z,69.34
2023-02-25T08:51:34.162Z,70.57
2023-02-25T08:54:09.425Z,70.92
2023-02-25T08:56:38.301Z,72.54
2023-02-25T08:59:06.281Z,72.83
2023-02-25T09:01:45.890Z,73.73
2023-02-25T09:04:15.880Z,74.29
2023-02-25T09:06:44.586Z,74.68
2023-02-25T09:09:13.460Z,75.08
2023-02-25T09:11:42.739Z,75.20
2023-02-25T09:14:10.877Z,75.04
2023-02-25T09:16:39.247Z,75.41
2023-02-25T09:19:07.585Z,75.57
2023-02-25T09:21:36.301Z,76.00
2023-02-25T09:24:04.509Z,76.54
2023-02-25T09:26:32.415Z,76.83
2023-02-25T09:29:05.619Z,76.54
2023-02-25T09:31:34.776Z,76.48
2023-02-25T09:34:09.305Z,76.69
2023-02-25T09:36:37.366Z,76.46
2023-02-25T09:39:10.283Z,76.18
2023-02-25T09:41:55.958Z,76.14
2023-02-25T09:44:36.551Z,76.02
2023-02-25T09:47:23.334Z,75.65
2023-02-25T09:50:02.663Z,75.16
2023-02-25T09:52:40.018Z,75.21
2023-02-25T09:55:36.457Z,75.49
2023-02-25T09:58:46.194Z,75.70
2023-02-25T10:01:27.470Z,75.88
2023-02-25T10:04:24.305Z,75.57
2023-02-25T10:06:53.312Z,75.39
2023-02-25T10:09:50.683Z,76.05
2023-02-25T10:12:33.657Z,75.51
2023-02-25T10:16:04.314Z,74.61
2023-02-25T10:19:08.602Z,75.08
2023-02-25T10:21:45.229Z,76.41
2023-02-25T10:24:47.169Z,77.39
2023-02-25T10:27:41.617Z,77.76
2023-02-25T10:30:23.382Z,79.18
2023-02-25T10:32:51.571Z,79.00
2023-02-25T10:35:27.599Z,78.85
2023-02-25T10:37:55.735Z,78.34
2023-02-25T10:40:29.359Z,78.93
2023-02-25T10:43:20.252Z,79.02
2023-02-25T10:45:58.463Z,77.83
2023-02-25T10:48:26.233Z,76.88
2023-02-25T10:51:16.150Z,76.84
2023-02-25T10:53:59.424Z,77.58
2023-02-25T10:56:47.231Z,77.98
2023-02-25T10:59:30.040Z,78.10
2023-02-25T11:02:00.957Z,78.07
2023-02-25T11:04:37.372Z,77.43
2023-02-25T11:07:43.550Z,77.47
2023-02-25T11:10:20.806Z,77.02
2023-02-25T11:12:54.163Z,77.33
2023-02-25T11:15:43.675Z,76.90
2023-02-25T11:18:31.635Z,76.74
2023-02-25T11:21:09.477Z,75.93
2023-02-25T11:23:47.028Z,73.86
2023-02-25T11:26:39.359Z,73.15
2023-02-25T11:29:23.049Z,72.18
2023-02-25T11:32:16.121Z,71.81
2023-02-25T11:34:52.088Z,71.52
2023-02-25T11:37:45.549Z,71.58
2023-02-25T11:40:30.454Z,71.68
2023-02-25T11:43:06.823Z,71.68
2023-02-25T11:45:39.053Z,71.97
2023-02-25T11:48:41.215Z,71.31
2023-02-25T11:51:33.708Z,69.07
2023-02-25T11:55:12.732Z,68.19
2023-02-25T11:57:40.340Z,67.82
2023-02-25T12:00:40.317Z,70.62
2023-02-25T12:03:36.906Z,73.57
2023-02-25T12:06:04.286Z,76.41
2023-02-25T12:09:05.930Z,77.70
2023-02-25T12:11:54.185Z,78.61
2023-02-25T12:14:58.823Z,78.30
2023-02-25T12:17:38.206Z,74.56
2023-02-25T12:20:50.178Z,73.91
2023-02-25T12:23:56.554Z,73.91
2023-02-25T12:27:20.183Z,74.96
2023-02-25T12:30:08.660Z,78.26
2023-02-25T12:32:59.580Z,81.19
2023-02-25T12:36:04.728Z,82.91
2023-02-25T12:38:53.548Z,84.67
2023-02-25T12:41:46.934Z,83.81
2023-02-25T12:44:42.258Z,82.76
2023-02-25T12:48:02.904Z,80.90
2023-02-25T12:51:01.951Z,76.29
2023-02-25T12:53:46.654Z,75.60
2023-02-25T12:56:33.099Z,75.92
2023-02-25T12:59:34.905Z,74.94
2023-02-25T13:02:34.076Z,75.66
2023-02-25T13:05:48.944Z,76.12
2023-02-25T13:08:47.547Z,77.21
2023-02-25T13:12:09.911Z,77.92
2023-02-25T13:14:36.932Z,78.42
2023-02-25T13:17:47.194Z,79.35
2023-02-25T13:20:44.205Z,80.53
2023-02-25T13:23:51.761Z,82.23
2023-02-25T13:26:44.700Z,83.42
2023-02-25T13:29:35.821Z,84.64
2023-02-25T13:32:50.345Z,86.48
2023-02-25T13:35:56.531Z,86.18
2023-02-25T13:38:28.171Z,86.24
2023-02-25T13:41:55.169Z,86.16
2023-02-25T13:44:29.251Z,81.13
2023-02-25T13:47:17.496Z,79.87
2023-02-25T13:50:06.362Z,79.21
2023-02-25T13:53:13.850Z,80.08
2023-02-25T13:56:15.324Z,80.26
2023-02-25T13:59:12.434Z,79.88
2023-02-25T14:02:17.211Z,79.50
2023-02-25T14:05:23.918Z,84.02
2023-02-25T14:08:23.301Z,85.75
2023-02-25T14:11:11.917Z,79.89
2023-02-25T14:14:18.334Z,79.73
2023-02-25T14:17:22.962Z,79.78
2023-02-25T14:19:59.440Z,76.38
2023-02-25T14:22:38.671Z,75.93
2023-02-25T14:25:34.272Z,77.45
2023-02-25T14:28:26.838Z,78.48
2023-02-25T14:31:13.075Z,79.15
2023-02-25T14:34:28.266Z,79.05
2023-02-25T14:37:34.830Z,79.84
2023-02-25T14:40:18.022Z,80.47
2023-02-25T14:43:15.002Z,81.72
2023-02-25T14:46:04.479Z,82.19
2023-02-25T14:49:17.286Z,81.41
2023-02-25T14:52:53.331Z,81.48
2023-02-25T14:55:32.635Z,81.02
2023-02-25T14:58:36.998Z,80.44
2023-02-25T15:01:38.849Z,79.67
2023-02-25T15:04:39.357Z,79.80
2023-02-25T15:07:21.847Z,79.93
2023-02-25T15:10:26.853Z,79.86
2023-02-25T15:13:01.046Z,80.89
2023-02-25T15:16:07.217Z,79.95
2023-02-25T15:19:20.151Z,80.50
2023-02-25T15:21:49.804Z,80.36
2023-02-25T15:24:38.444Z,81.99
2023-02-25T15:27:36.771Z,82.04
2023-02-25T15:30:10.086Z,81.87
2023-02-25T15:32:51.199Z,82.22
2023-02-25T15:35:35.651Z,81.77
2023-02-25T15:38:18.145Z,81.60
2023-02-25T15:40:53.011Z,81.13
2023-02-25T15:43:23.922Z,81.65
2023-02-25T15:46:23.716Z,82.68
2023-02-25T15:49:28.667Z,82.10
2023-02-25T15:52:05.315Z,82.57
2023-02-25T15:54:32.817Z,81.67
2023-02-25T15:57:05.002Z,79.24
2023-02-25T15:59:57.697Z,78.20
2023-02-25T16:02:33.406Z,76.93
2023-02-25T16:05:09.932Z,76.55
2023-02-25T16:07:44.422Z,76.91
2023-02-25T16:10:47.978Z,76.82
2023-02-25T16:13:33.058Z,76.59
2023-02-25T16:16:04.029Z,76.13
2023-02-25T16:18:45.185Z,76.72
2023-02-25T16:21:25.468Z,78.02
2023-02-25T16:23:54.894Z,78.44
2023-02-25T16:26:50.141Z,79.54
2023-02-25T16:29:20.600Z,80.57
2023-02-25T16:32:20.242Z,81.23
2023-02-25T16:35:03.910Z,81.26
2023-02-25T16:37:43.465Z,81.51
2023-02-25T16:40:36.907Z,81.29
2023-02-25T16:43:05.746Z,82.91
2023-02-25T16:45:54.942Z,83.23
2023-02-25T16:48:32.105Z,83.79
2023-02-25T16:51:11.265Z,84.11
2023-02-25T16:53:48.005Z,84.97
2023-02-25T16:56:23.608Z,83.55
2023-02-25T16:59:20.125Z,83.87
2023-02-25T17:02:01.796Z,83.68
2023-02-25T17:05:12.409Z,85.05
2023-02-25T17:08:05.963Z,84.50
2023-02-25T17:10:43.821Z,84.77
2023-02-25T17:13:21.760Z,82.38
2023-02-25T17:15:51.072Z,84.13
2023-02-25T17:18:33.151Z,83.91
2023-02-25T17:21:35.866Z,83.53
2023-02-25T17:24:11.960Z,82.07
2023-02-25T17:26:49.489Z,81.93
2023-02-25T17:29:18.504Z,83.63
2023-02-25T17:31:55.149Z,85.45
2023-02-25T17:34:35.805Z,86.18
2023-02-25T17:37:08.062Z,87.62
2023-02-25T17:39:36.612Z,87.18
2023-02-25T17:42:32.706Z,87.12
2023-02-25T17:45:03.707Z,85.64
2023-02-25T17:47:35.642Z,84.15
2023-02-25T17:50:31.902Z,84.64
2023-02-25T17:53:00.314Z,83.59
2023-02-25T17:55:37.419Z,83.69
2023-02-25T17:58:05.272Z,84.86
2023-02-25T18:00:36.101Z,83.47
2023-02-25T18:03:12.153Z,83.83
2023-02-25T18:05:55.057Z,82.68
2023-02-25T18:08:26.395Z,84.07
2023-02-25T18:11:21.072Z,84.75
2023-02-25T18:13:48.746Z,84.20
2023-02-25T18:16:38.936Z,83.19
2023-02-25T18:19:35.743Z,82.31
2023-02-25T18:22:24.609Z,81.82
2023-02-25T18:24:59.205Z,80.97
2023-02-25T18:27:33.196Z,81.42
2023-02-25T18:30:18.385Z,80.23
2023-02-25T18:32:47.426Z,79.93
2023-02-25T18:35:16.140Z,79.82
2023-02-25T18:37:47.614Z,80.74
2023-02-25T18:40:50.116Z,81.20
2023-02-25T18:43:21.216Z,81.28
2023-02-25T18:45:49.997Z,82.31
2023-02-25T18:48:17.829Z,82.05
2023-02-25T18:50:45.573Z,81.43
2023-02-25T18:53:23.505Z,81.68
2023-02-25T18:55:53.133Z,80.51
2023-02-25T18:58:22.008Z,77.86
2023-02-25T19:00:57.325Z,76.79
2023-02-25T19:03:43.831Z,75.90
2023-02-25T19:06:11.466Z,76.51
2023-02-25T19:08:39.245Z,77.30
2023-02-25T19:11:24.631Z,76.43
2023-02-25T19:13:53.129Z,76.11
2023-02-25T19:16:21.181Z,76.66
2023-02-25T19:18:49.332Z,76.32
2023-02-25T19:21:27.002Z,77.35
2023-02-25T19:23:55.852Z,78.68
2023-02-25T19:26:23.787Z,79.40
2023-02-25T19:28:52.233Z,79.18
2023-02-25T19:31:21.011Z,78.95
2023-02-25T19:33:49.213Z,78.33
2023-02-25T19:36:16.697Z,77.54
2023-02-25T19:38:44.533Z,76.64
2023-02-25T19:41:14.414Z,76.18
2023-02-25T19:43:42.454Z,76.40
2023-02-25T19:46:10.423Z,74.64
2023-02-25T19:48:38.428Z,73.95
2023-02-25T19:51:08.813Z,75.53
2023-02-25T19:53:38.659Z,76.32
2023-02-25T19:56:08.124Z,76.60
2023-02-25T19:58:36.005Z,76.68
2023-02-25T20:01:06.479Z,76.31
2023-02-25T20:03:36.344Z,76.49
2023-02-25T20:06:13.669Z,76.70
2023-02-25T20:08:42.765Z,76.76
2023-02-25T20:11:12.094Z,75.66
2023-02-25T20:13:40.033Z,75.62
2023-02-25T20:16:09.346Z,75.26
2023-02-25T20:18:37.814Z,76.05
2023-02-25T20:21:06.253Z,75.97
2023-02-25T20:23:34.434Z,75.63
2023-02-25T20:26:15.453Z,76.85
2023-02-25T20:28:43.802Z,75.33
2023-02-25T20:31:20.466Z,77.22
2023-02-25T20:33:56.182Z,77.98
2023-02-25T20:36:31.894Z,77.96
2023-02-25T20:39:23.905Z,78.60
2023-02-25T20:41:51.688Z,78.26
2023-02-25T20:44:19.805Z,78.75
2023-02-25T20:46:47.661Z,79.20
2023-02-25T20:49:19.178Z,79.33
2023-02-25T20:51:48.903Z,80.31
2023-02-25T20:54:18.627Z,80.90
2023-02-25T20:56:47.769Z,81.08
2023-02-25T20:59:16.796Z,81.21
2023-02-25T21:01:45.900Z,80.88
2023-02-25T21:04:13.742Z,82.36
2023-02-25T21:06:41.376Z,82.67
2023-02-25T21:09:09.381Z,83.22
2023-02-25T21:11:36.986Z,83.87
2023-02-25T21:14:09.190Z,83.11
2023-02-25T21:16:38.697Z,83.73
2023-02-25T21:19:07.671Z,82.12
2023-02-25T21:21:37.405Z,82.06
2023-02-25T21:24:10.403Z,81.87
2023-02-25T21:26:41.046Z,81.58
2023-02-25T21:29:10.704Z,82.32
2023-02-25T21:31:39.506Z,81.58
2023-02-25T21:34:09.275Z,81.05
2023-02-25T21:36:38.108Z,82.22
2023-02-25T21:39:07.058Z,82.58
2023-02-25T21:41:36.792Z,82.79
2023-02-25T21:44:05.107Z,82.03
2023-02-25T21:46:39.313Z,82.31
2023-02-25T21:49:07.705Z,82.22
2023-02-25T21:51:35.538Z,82.22
2023-02-25T21:54:03.939Z,81.25
2023-02-25T21:56:32.406Z,82.32
2023-02-25T21:59:05.429Z,80.74
2023-02-25T22:02:28.538Z,80.60
2023-02-25T22:04:56.479Z,80.78
2023-02-25T22:07:24.075Z,80.98
2023-02-25T22:09:52.866Z,80.24
2023-02-25T22:12:20.579Z,81.10
2023-02-25T22:14:48.531Z,80.68
2023-02-25T22:17:16.534Z,81.14
2023-02-25T22:19:44.551Z,81.48
2023-02-25T22:22:14.119Z,81.12
2023-02-25T22:24:42.878Z,81.41
2023-02-25T22:27:10.506Z,80.60
2023-02-25T22:29:38.566Z,80.00
2023-02-25T22:32:06.888Z,81.57
2023-02-25T22:34:35.983Z,80.21
2023-02-25T22:37:03.629Z,79.16
2023-02-25T22:39:31.575Z,79.26
2023-02-25T22:41:59.067Z,80.70
2023-02-25T22:44:29.914Z,80.74
2023-02-25T22:46:57.616Z,80.91
2023-02-25T22:49:25.776Z,79.56
2023-02-25T22:51:53.670Z,79.00
2023-02-25T22:54:21.738Z,81.23
2023-02-25T22:56:49.916Z,81.02
2023-02-25T22:59:19.000Z,80.22
2023-02-25T23:01:46.636Z,79.88
2023-02-25T23:04:14.744Z,79.95
2023-02-25T23:06:45.020Z,81.33
2023-02-25T23:09:14.351Z,81.46
2023-02-25T23:11:44.441Z,82.16
2023-02-25T23:14:13.405Z,81.91
2023-02-25T23:16:46.096Z,80.96
2023-02-25T23:19:18.895Z,81.17
2023-02-25T23:21:47.768Z,81.29
2023-02-25T23:24:19.530Z,81.90
2023-02-25T23:26:50.754Z,82.72
2023-02-25T23:29:18.802Z,82.39
2023-02-25T23:31:48.258Z,82.06
2023-02-25T23:34:23.413Z,82.37
2023-02-25T23:36:54.557Z,82.32
2023-02-25T23:39:23.017Z,81.80
2023-02-25T23:41:50.822Z,82.11
2023-02-25T23:44:18.782Z,81.25
2023-02-25T23:46:46.379Z,80.98
2023-02-25T23:49:16.650Z,81.32
2023-02-25T23:51:47.194Z,80.95
2023-02-25T23:54:21.652Z,82.44
2023-02-25T23:56:50.457Z,82.12
2023-02-25T23:59:18.666Z,82.49
